createdAt,value
2022-11-04T00:02:27.333Z,3.07
2022-11-04T00:04:53.899Z,4.17
2022-11-04T00:07:20.383Z,3.13
2022-11-04T00:09:46.894Z,2.90
2022-11-04T00:12:13.369Z,4.70
2022-11-04T00:14:39.929Z,3.00
2022-11-04T00:17:10.244Z,2.40
2022-11-04T00:19:38.111Z,2.37
2022-11-04T00:22:04.582Z,2.23
2022-11-04T00:24:31.072Z,2.13
2022-11-04T00:26:57.795Z,2.30
2022-11-04T00:29:24.499Z,2.70
2022-11-04T00:31:50.993Z,2.40
2022-11-04T00:34:17.613Z,2.23
2022-11-04T00:36:45.441Z,2.43
2022-11-04T00:39:11.908Z,1.70
2022-11-04T00:41:38.392Z,1.70
2022-11-04T00:44:05.411Z,1.50
2022-11-04T00:46:33.575Z,1.60
2022-11-04T00:49:00.746Z,1.67
2022-11-04T00:51:27.397Z,1.70
2022-11-04T00:53:55.669Z,1.90
2022-11-04T00:56:22.168Z,1.60
2022-11-04T00:58:48.714Z,1.30
2022-11-04T01:01:16.357Z,1.60
2022-11-04T01:03:42.997Z,1.83
2022-11-04T01:06:09.987Z,1.70
2022-11-04T01:08:36.530Z,1.40
2022-11-04T01:11:05.114Z,1.50
2022-11-04T01:13:32.268Z,1.30
2022-11-04T01:15:58.798Z,1.20
2022-11-04T01:18:25.335Z,1.10
2022-11-04T01:20:51.835Z,1.63
2022-11-04T01:23:18.468Z,1.07
2022-11-04T01:25:44.948Z,1.43
2022-11-04T01:28:12.782Z,1.47
2022-11-04T01:30:39.304Z,1.83
2022-11-04T01:33:05.776Z,1.20
2022-11-04T01:35:32.356Z,1.93
2022-11-04T01:37:58.960Z,1.90
2022-11-04T01:40:25.669Z,1.13
2022-11-04T01:42:52.294Z,1.17
2022-11-04T01:45:21.552Z,0.80
2022-11-04T01:47:54.162Z,1.10
2022-11-04T01:50:23.868Z,0.97
2022-11-04T01:52:54.332Z,1.10
2022-11-04T01:55:23.583Z,0.67
2022-11-04T01:57:52.740Z,0.73
2022-11-04T02:00:20.794Z,0.80
2022-11-04T02:02:53.620Z,0.70
2022-11-04T02:05:20.780Z,0.87
2022-11-04T02:07:50.869Z,0.60
2022-11-04T02:10:20.203Z,0.70
2022-11-04T02:12:46.849Z,0.50
2022-11-04T02:15:13.395Z,0.80
2022-11-04T02:18:07.069Z,0.70
2022-11-04T02:20:49.808Z,2.10
2022-11-04T02:23:55.082Z,0.67
2022-11-04T02:26:55.226Z,0.60
2022-11-04T02:29:43.058Z,1.30
2022-11-04T02:32:17.794Z,0.67
2022-11-04T02:34:55.624Z,0.70
2022-11-04T02:37:31.549Z,1.23
2022-11-04T02:40:12.101Z,0.63
2022-11-04T02:42:45.209Z,0.63
2022-11-04T02:45:17.782Z,1.10
2022-11-04T02:47:48.506Z,0.70
2022-11-04T02:50:23.116Z,1.07
2022-11-04T02:52:56.496Z,0.70
2022-11-04T02:55:26.806Z,1.00
2022-11-04T02:57:56.482Z,0.70
2022-11-04T03:00:24.918Z,0.80
2022-11-04T03:02:53.485Z,0.77
2022-11-04T03:05:25.187Z,0.40
2022-11-04T03:07:56.255Z,0.50
2022-11-04T03:10:28.159Z,0.50
2022-11-04T03:12:58.803Z,0.77
2022-11-04T03:15:29.521Z,0.90
2022-11-04T03:18:02.667Z,0.73
2022-11-04T03:20:31.236Z,1.47
2022-11-04T03:22:59.129Z,0.50
2022-11-04T03:25:28.870Z,0.57
2022-11-04T03:28:02.269Z,1.47
2022-11-04T03:30:38.351Z,0.77
2022-11-04T03:33:12.120Z,1.20
2022-11-04T03:35:38.968Z,0.50
2022-11-04T03:38:05.579Z,0.50
2022-11-04T03:40:32.115Z,0.70
2022-11-04T03:43:02.751Z,0.60
2022-11-04T03:45:31.164Z,0.70
2022-11-04T03:47:58.273Z,0.90
2022-11-04T03:50:28.548Z,0.63
2022-11-04T03:52:56.480Z,1.03
2022-11-04T03:55:27.486Z,0.50
2022-11-04T03:57:57.936Z,0.60
2022-11-04T04:00:29.274Z,0.50
2022-11-04T04:03:06.303Z,1.23
2022-11-04T04:05:38.720Z,0.87
2022-11-04T04:08:23.176Z,0.73
2022-11-04T04:11:00.334Z,0.60
2022-11-04T04:13:36.845Z,1.13
2022-11-04T04:16:07.838Z,0.67
2022-11-04T04:18:38.823Z,0.67
2022-11-04T04:21:09.688Z,1.43
2022-11-04T04:23:37.452Z,0.50
2022-11-04T04:26:06.633Z,0.60
2022-11-04T04:28:33.224Z,0.73
2022-11-04T04:31:00.429Z,0.73
2022-11-04T04:33:27.291Z,0.67
2022-11-04T04:35:57.237Z,0.83
2022-11-04T04:38:25.992Z,1.47
2022-11-04T04:43:28.917Z,0.50
2022-11-04T04:45:56.423Z,0.47
2022-11-04T04:48:22.905Z,0.83
2022-11-04T04:50:52.329Z,0.80
2022-11-04T04:53:20.173Z,0.60
2022-11-04T04:55:46.664Z,1.07
2022-11-04T04:58:13.138Z,0.57
2022-11-04T05:00:39.804Z,0.77
2022-11-04T05:03:06.521Z,0.73
2022-11-04T05:05:33.265Z,0.97
2022-11-04T05:08:04.682Z,0.70
2022-11-04T05:10:32.719Z,1.60
2022-11-04T05:12:59.725Z,0.90
2022-11-04T05:15:26.868Z,0.60
2022-11-04T05:17:54.167Z,0.60
2022-11-04T05:20:20.663Z,0.77
2022-11-04T05:22:47.239Z,6.03
2022-11-04T05:25:13.864Z,1.30
2022-11-04T05:27:41.723Z,1.03
2022-11-04T05:30:09.043Z,1.17
2022-11-04T05:32:35.551Z,1.13
2022-11-04T05:35:02.079Z,1.63
2022-11-04T05:37:28.569Z,1.23
2022-11-04T05:39:55.051Z,1.23
2022-11-04T05:42:21.574Z,1.00
2022-11-04T05:44:49.392Z,1.30
2022-11-04T05:47:16.941Z,1.00
2022-11-04T05:49:43.456Z,1.23
2022-11-04T05:52:09.959Z,1.93
2022-11-04T05:54:37.577Z,1.83
2022-11-04T05:57:04.070Z,1.13
2022-11-04T05:59:30.598Z,2.00
2022-11-04T06:01:58.575Z,1.10
2022-11-04T06:04:25.238Z,1.43
2022-11-04T06:06:51.781Z,1.03
2022-11-04T06:09:18.302Z,2.50
2022-11-04T06:11:44.834Z,3.10
2022-11-04T06:14:16.004Z,2.20
2022-11-04T06:16:44.966Z,4.43
2022-11-04T06:19:15.124Z,4.53
2022-11-04T06:21:42.885Z,3.40
2022-11-04T06:24:09.421Z,3.27
2022-11-04T06:26:35.934Z,1.30
2022-11-04T06:29:02.412Z,1.93
2022-11-04T06:31:28.915Z,2.07
2022-11-04T06:33:55.415Z,1.27
2022-11-04T06:36:23.248Z,1.67
2022-11-04T06:38:49.740Z,1.10
2022-11-04T06:41:17.450Z,1.53
2022-11-04T06:43:44.301Z,1.87
2022-11-04T06:46:25.226Z,0.83
2022-11-04T06:48:51.728Z,1.97
2022-11-04T06:51:18.341Z,0.90
2022-11-04T06:53:46.207Z,1.17
2022-11-04T06:56:12.787Z,1.10
2022-11-04T06:58:39.296Z,2.83
2022-11-04T07:01:12.798Z,1.17
2022-11-04T07:03:42.492Z,1.23
2022-11-04T07:06:10.279Z,2.57
2022-11-04T07:08:37.089Z,1.00
2022-11-04T07:11:05.125Z,1.90
2022-11-04T07:13:31.609Z,1.67
2022-11-04T07:15:58.215Z,2.70
2022-11-04T07:18:24.708Z,2.30
2022-11-04T07:20:51.305Z,1.00
2022-11-04T07:23:17.984Z,1.70
2022-11-04T07:25:44.452Z,0.97
2022-11-04T07:28:12.695Z,1.23
2022-11-04T07:30:39.291Z,2.10
2022-11-04T07:33:05.818Z,2.57
2022-11-04T07:35:32.472Z,2.10
2022-11-04T07:37:58.979Z,1.23
2022-11-04T07:40:25.504Z,1.50
2022-11-04T07:42:51.982Z,1.70
2022-11-04T07:45:19.844Z,1.93
2022-11-04T07:47:46.329Z,1.00
2022-11-04T07:50:13.141Z,3.17
2022-11-04T07:52:39.703Z,2.57
2022-11-04T07:55:06.794Z,2.37
2022-11-04T07:57:33.271Z,1.83
2022-11-04T07:59:59.782Z,1.57
2022-11-04T08:02:32.444Z,1.77
2022-11-04T08:05:00.567Z,3.77
2022-11-04T08:07:27.061Z,1.53
2022-11-04T08:09:53.547Z,1.50
2022-11-04T08:12:20.087Z,2.00
2022-11-04T08:14:46.597Z,0.80
2022-11-04T08:17:13.119Z,1.53
2022-11-04T08:19:40.947Z,1.00
2022-11-04T08:22:07.437Z,1.23
2022-11-04T08:24:33.955Z,1.93
2022-11-04T08:27:00.471Z,1.80
2022-11-04T08:29:27.248Z,1.73
2022-11-04T08:31:53.752Z,2.27
2022-11-04T08:34:20.246Z,1.83
2022-11-04T08:36:48.078Z,1.87
2022-11-04T08:39:14.584Z,1.90
2022-11-04T08:41:42.457Z,1.10
2022-11-04T08:44:10.026Z,1.73
2022-11-04T08:46:39.029Z,1.23
2022-11-04T08:49:10.012Z,2.13
2022-11-04T08:51:40.062Z,2.03
2022-11-04T08:54:08.427Z,1.73
2022-11-04T08:56:36.548Z,3.00
2022-11-04T08:59:04.403Z,1.50
2022-11-04T09:01:35.768Z,1.63
2022-11-04T09:04:03.587Z,2.47
2022-11-04T09:06:33.032Z,1.23
2022-11-04T09:08:59.953Z,2.90
2022-11-04T09:11:28.100Z,2.00
2022-11-04T09:13:54.575Z,1.90
2022-11-04T09:16:21.102Z,1.90
2022-11-04T09:18:47.577Z,2.17
2022-11-04T09:21:14.067Z,2.50
2022-11-04T09:23:40.597Z,3.17
2022-11-04T09:26:09.208Z,2.03
2022-11-04T09:28:37.141Z,1.47
2022-11-04T09:31:08.327Z,1.63
2022-11-04T09:33:34.889Z,2.47
2022-11-04T09:36:01.605Z,1.70
2022-11-04T09:38:28.110Z,2.67
2022-11-04T09:40:55.470Z,2.13
2022-11-04T09:43:33.221Z,2.20
2022-11-04T09:46:02.803Z,2.27
2022-11-04T09:48:33.737Z,3.70
2022-11-04T09:51:02.747Z,1.43
2022-11-04T09:53:40.471Z,1.80
2022-11-04T09:56:15.482Z,1.60
2022-11-04T09:58:42.215Z,3.30
2022-11-04T10:01:26.744Z,1.87
2022-11-04T10:04:20.782Z,1.67
2022-11-04T10:07:05.520Z,5.50
2022-11-04T10:09:44.870Z,3.50
2022-11-04T10:12:24.373Z,2.97
2022-11-04T10:15:10.229Z,2.80
2022-11-04T10:17:51.277Z,1.57
2022-11-04T10:20:31.550Z,1.97
2022-11-04T10:23:02.226Z,1.43
2022-11-04T10:25:34.438Z,3.40
2022-11-04T10:28:02.104Z,1.40
2022-11-04T10:30:28.755Z,1.77
2022-11-04T10:33:09.327Z,1.47
2022-11-04T10:35:42.404Z,1.80
2022-11-04T10:38:19.379Z,1.87
2022-11-04T10:40:48.371Z,1.87
2022-11-04T10:43:20.643Z,3.13
2022-11-04T10:45:57.348Z,1.80
2022-11-04T10:48:28.961Z,2.17
2022-11-04T10:50:58.406Z,2.87
2022-11-04T10:53:26.671Z,1.70
2022-11-04T10:56:01.172Z,2.37
2022-11-04T10:58:31.423Z,2.67
2022-11-04T11:00:58.945Z,2.63
2022-11-04T11:03:29.034Z,2.07
2022-11-04T11:06:13.633Z,2.13
2022-11-04T11:08:41.844Z,2.53
2022-11-04T11:11:09.528Z,3.07
2022-11-04T11:13:37.826Z,3.30
2022-11-04T11:16:07.613Z,2.80
2022-11-04T11:18:34.269Z,2.57
2022-11-04T11:21:08.749Z,2.23
2022-11-04T11:23:38.258Z,3.57
2022-11-04T11:26:07.108Z,3.10
2022-11-04T11:28:34.605Z,2.67
2022-11-04T11:31:02.653Z,2.10
2022-11-04T11:33:31.261Z,2.77
2022-11-04T11:36:00.552Z,3.40
2022-11-04T11:38:30.136Z,1.20
2022-11-04T11:41:23.980Z,2.77
2022-11-04T11:43:52.820Z,1.40
2022-11-04T11:46:21.957Z,2.93
2022-11-04T11:48:52.020Z,2.63
2022-11-04T11:51:29.045Z,2.20
2022-11-04T11:54:15.818Z,3.10
2022-11-04T11:57:12.171Z,2.00
2022-11-04T12:02:34.266Z,1.90
2022-11-04T12:10:52.027Z,1.67
2022-11-04T12:13:26.429Z,2.97
2022-11-04T12:16:08.660Z,2.80
2022-11-04T12:18:47.703Z,1.43
2022-11-04T12:21:15.632Z,1.80
2022-11-04T12:23:49.361Z,2.70
2022-11-04T12:26:30.120Z,1.73
2022-11-04T12:29:10.438Z,2.20
2022-11-04T12:31:49.648Z,3.30
2022-11-04T12:34:27.928Z,1.37
2022-11-04T12:37:08.481Z,1.93
2022-11-04T12:39:46.371Z,1.67
2022-11-04T12:42:24.577Z,2.63
2022-11-04T12:45:04.255Z,2.30
2022-11-04T12:47:36.711Z,3.33
2022-11-04T12:50:31.402Z,1.63
2022-11-04T12:53:12.850Z,2.70
2022-11-04T12:55:49.726Z,3.60
2022-11-04T12:58:38.703Z,1.20
2022-11-04T13:01:15.126Z,3.23
2022-11-04T13:03:48.748Z,2.07
2022-11-04T13:06:19.337Z,3.07
2022-11-04T13:08:51.281Z,1.50
2022-11-04T13:11:22.815Z,2.33
2022-11-04T13:14:01.888Z,2.60
2022-11-04T13:16:30.000Z,1.73
2022-11-04T13:18:58.485Z,1.30
2022-11-04T13:21:27.654Z,2.90
2022-11-04T13:23:59.296Z,2.93
2022-11-04T13:26:25.851Z,3.07
2022-11-04T13:28:57.820Z,1.97
2022-11-04T13:31:31.663Z,3.27
2022-11-04T13:34:05.227Z,2.27
2022-11-04T13:36:40.609Z,1.67
2022-11-04T13:39:13.338Z,2.70
2022-11-04T13:42:09.357Z,2.57
2022-11-04T13:44:39.802Z,2.60
2022-11-04T13:47:21.766Z,2.33
2022-11-04T13:49:50.590Z,2.53
2022-11-04T13:52:18.107Z,1.00
2022-11-04T13:54:46.754Z,3.13
2022-11-04T13:57:15.880Z,1.80
2022-11-04T14:00:08.946Z,2.77
2022-11-04T14:02:43.834Z,1.63
2022-11-04T14:05:53.026Z,2.47
2022-11-04T14:08:19.565Z,1.00
2022-11-04T14:10:59.381Z,2.53
2022-11-04T14:13:45.819Z,1.33
2022-11-04T14:16:37.486Z,1.00
2022-11-04T14:19:51.772Z,2.00
2022-11-04T14:22:19.161Z,1.73
2022-11-04T14:24:54.719Z,1.23
2022-11-04T14:27:25.456Z,2.10
2022-11-04T14:29:53.452Z,1.57
2022-11-04T14:32:25.764Z,1.70
2022-11-04T14:34:59.759Z,2.03
2022-11-04T14:37:27.941Z,3.23
2022-11-04T14:39:57.559Z,1.37
2022-11-04T14:42:48.014Z,3.73
2022-11-04T14:45:19.661Z,2.83
2022-11-04T14:47:51.572Z,2.60
2022-11-04T14:50:21.704Z,2.37
2022-11-04T14:52:52.857Z,1.50
2022-11-04T14:55:21.344Z,2.13
2022-11-04T14:57:49.458Z,1.93
2022-11-04T15:00:32.237Z,2.30
2022-11-04T15:03:05.725Z,1.70
2022-11-04T15:05:33.335Z,2.93
2022-11-04T15:07:59.843Z,3.30
2022-11-04T15:10:28.211Z,1.77
2022-11-04T15:12:59.507Z,1.67
2022-11-04T15:15:29.126Z,6.63
2022-11-04T15:17:59.462Z,3.80
2022-11-04T15:20:29.855Z,2.37
2022-11-04T15:22:58.410Z,2.60
2022-11-04T15:25:25.097Z,2.03
2022-11-04T15:27:52.174Z,3.80
2022-11-04T15:30:21.485Z,1.87
2022-11-04T15:32:56.189Z,2.77
2022-11-04T15:35:23.004Z,2.97
2022-11-04T15:37:51.490Z,1.63
2022-11-04T15:40:18.458Z,3.17
2022-11-04T15:42:46.057Z,2.20
2022-11-04T15:45:38.369Z,2.10
2022-11-04T15:48:37.984Z,2.30
2022-11-04T15:51:15.290Z,1.60
2022-11-04T15:53:52.419Z,2.90
2022-11-04T15:56:21.968Z,1.87
2022-11-04T15:58:49.287Z,2.63
2022-11-04T16:01:17.618Z,3.37
2022-11-04T16:03:49.845Z,3.70
2022-11-04T16:06:16.576Z,8.43
2022-11-04T16:08:43.224Z,12.60
2022-11-04T16:11:17.345Z,13.93
2022-11-04T16:13:45.591Z,9.43
2022-11-04T16:16:21.708Z,12.83
2022-11-04T16:18:53.719Z,8.73
2022-11-04T16:21:25.246Z,5.63
2022-11-04T16:23:57.136Z,4.00
2022-11-04T16:26:27.730Z,5.20
2022-11-04T16:28:55.772Z,2.83
2022-11-04T16:31:28.301Z,2.73
2022-11-04T16:33:55.284Z,2.40
2022-11-04T16:36:21.983Z,2.37
2022-11-04T16:38:52.451Z,3.00
2022-11-04T16:41:19.030Z,1.73
2022-11-04T16:43:48.206Z,1.67
2022-11-04T16:46:14.746Z,2.23
2022-11-04T16:48:41.270Z,3.03
2022-11-04T16:51:14.021Z,2.30
2022-11-04T16:53:40.520Z,3.73
2022-11-04T16:56:08.074Z,3.30
2022-11-04T16:58:34.621Z,6.97
2022-11-04T17:01:05.444Z,5.20
2022-11-04T17:03:32.529Z,2.70
2022-11-04T17:05:59.069Z,2.77
2022-11-04T17:08:26.469Z,1.27
2022-11-04T17:10:53.309Z,2.30
2022-11-04T17:13:19.838Z,2.37
2022-11-04T17:15:46.433Z,2.70
2022-11-04T17:18:15.640Z,1.77
2022-11-04T17:20:43.559Z,1.10
2022-11-04T17:23:12.805Z,1.23
2022-11-04T17:25:39.804Z,4.50
2022-11-04T17:28:06.501Z,1.87
2022-11-04T17:30:36.657Z,1.77
2022-11-04T17:33:03.595Z,1.67
2022-11-04T17:35:32.356Z,1.93
2022-11-04T17:37:58.867Z,2.03
2022-11-04T17:40:25.499Z,1.30
2022-11-04T17:42:52.231Z,3.30
2022-11-04T17:45:18.799Z,2.27
2022-11-04T17:47:45.356Z,4.33
2022-11-04T17:50:11.892Z,3.43
2022-11-04T17:52:40.046Z,2.60
2022-11-04T17:55:09.052Z,3.50
2022-11-04T17:57:38.949Z,3.07
2022-11-04T18:00:06.861Z,2.27
2022-11-04T18:02:34.002Z,2.53
2022-11-04T18:05:00.586Z,1.40
2022-11-04T18:07:27.133Z,1.50
2022-11-04T18:09:55.168Z,1.80
2022-11-04T18:12:21.721Z,3.50
2022-11-04T18:14:48.250Z,1.77
2022-11-04T18:17:14.834Z,2.60
2022-11-04T18:19:41.575Z,1.93
2022-11-04T18:22:08.159Z,1.97
2022-11-04T18:24:34.984Z,2.87
2022-11-04T18:27:02.914Z,2.97
2022-11-04T18:29:29.440Z,2.77
2022-11-04T18:31:55.936Z,3.90
2022-11-04T18:34:22.487Z,3.03
2022-11-04T18:36:49.076Z,2.07
2022-11-04T18:39:17.862Z,2.23
2022-11-04T18:41:45.148Z,2.80
2022-11-04T18:44:14.842Z,2.47
2022-11-04T18:46:41.338Z,2.50
2022-11-04T18:49:07.935Z,2.37
2022-11-04T18:51:34.461Z,2.03
2022-11-04T18:54:03.647Z,2.07
2022-11-04T18:56:30.277Z,1.13
2022-11-04T18:58:56.818Z,1.73
2022-11-04T19:01:26.668Z,2.13
2022-11-04T19:03:53.778Z,1.73
2022-11-04T19:06:22.330Z,2.17
2022-11-04T19:08:48.830Z,2.27
2022-11-04T19:11:18.577Z,1.37
2022-11-04T19:13:50.277Z,1.60
2022-11-04T19:16:16.780Z,1.53
2022-11-04T19:18:44.925Z,1.43
2022-11-04T19:21:12.455Z,1.87
2022-11-04T19:23:39.198Z,2.27
2022-11-04T19:26:07.816Z,1.53
2022-11-04T19:28:47.636Z,1.47
2022-11-04T19:31:17.688Z,1.87
2022-11-04T19:33:45.632Z,1.23
2022-11-04T19:36:13.727Z,2.37
2022-11-04T19:38:40.642Z,1.40
2022-11-04T19:41:11.087Z,1.83
2022-11-04T19:43:37.575Z,1.70
2022-11-04T19:46:04.879Z,2.10
2022-11-04T19:48:31.479Z,2.40
2022-11-04T19:50:59.371Z,2.47
2022-11-04T19:53:25.886Z,3.97
2022-11-04T19:55:54.486Z,6.93
2022-11-04T19:58:21.305Z,4.97
2022-11-04T20:00:47.848Z,4.73
2022-11-04T20:03:14.528Z,3.47
2022-11-04T20:05:42.773Z,2.60
2022-11-04T20:08:11.036Z,3.30
2022-11-04T20:10:39.643Z,3.57
2022-11-04T20:13:06.709Z,3.23
2022-11-04T20:15:33.355Z,2.87
2022-11-04T20:18:00.504Z,2.93
2022-11-04T20:20:27.420Z,2.00
2022-11-04T20:22:53.958Z,2.27
2022-11-04T20:25:21.835Z,2.50
2022-11-04T20:27:48.504Z,2.30
2022-11-04T20:30:15.368Z,3.13
2022-11-04T20:32:41.929Z,2.40
2022-11-04T20:35:08.785Z,3.20
2022-11-04T20:37:35.340Z,2.53
2022-11-04T20:40:01.946Z,5.10
2022-11-04T20:42:29.980Z,2.60
2022-11-04T20:44:56.579Z,2.83
2022-11-04T20:47:23.094Z,3.03
2022-11-04T20:49:49.627Z,3.40
2022-11-04T20:52:16.201Z,3.20
2022-11-04T20:54:42.760Z,2.47
2022-11-04T20:57:09.327Z,2.20
2022-11-04T20:59:37.192Z,2.83
2022-11-04T21:02:03.866Z,2.60
2022-11-04T21:04:35.790Z,2.83
2022-11-04T21:07:02.773Z,3.13
2022-11-04T21:09:29.283Z,2.37
2022-11-04T21:11:55.763Z,2.27
2022-11-04T21:14:22.247Z,2.63
2022-11-04T21:16:50.081Z,4.10
2022-11-04T21:19:16.555Z,2.93
2022-11-04T21:21:43.961Z,2.93
2022-11-04T21:24:12.500Z,4.47
2022-11-04T21:26:39.103Z,5.00
2022-11-04T21:29:06.979Z,4.57
2022-11-04T21:31:35.660Z,4.43
2022-11-04T21:34:04.283Z,2.90
2022-11-04T21:36:31.581Z,3.27
2022-11-04T21:38:58.460Z,2.73
2022-11-04T21:41:27.157Z,3.40
2022-11-04T21:43:54.412Z,2.40
2022-11-04T21:46:21.002Z,2.90
2022-11-04T21:48:47.503Z,3.03
2022-11-04T21:51:17.498Z,2.70
2022-11-04T21:53:48.091Z,2.67
2022-11-04T21:56:17.258Z,2.93
2022-11-04T21:58:44.504Z,2.23
2022-11-04T22:01:12.788Z,1.93
2022-11-04T22:03:39.696Z,2.00
2022-11-04T22:06:08.712Z,3.10
2022-11-04T22:08:37.621Z,2.67
2022-11-04T22:11:08.831Z,2.00
2022-11-04T22:13:35.595Z,3.40
2022-11-04T22:16:09.170Z,2.27
2022-11-04T22:18:35.662Z,2.17
2022-11-04T22:21:05.772Z,2.50
2022-11-04T22:23:33.762Z,2.50
2022-11-04T22:26:02.043Z,2.43
2022-11-04T22:28:29.122Z,2.63
2022-11-04T22:30:55.677Z,3.00
2022-11-04T22:33:23.501Z,3.77
2022-11-04T22:35:51.644Z,3.43
2022-11-04T22:38:18.177Z,2.80
2022-11-04T22:40:44.658Z,2.97
2022-11-04T22:43:12.742Z,2.50
2022-11-04T22:45:39.369Z,2.37
2022-11-04T22:48:05.908Z,2.90
2022-11-04T22:50:34.108Z,2.93
2022-11-04T22:53:00.590Z,2.93
2022-11-04T22:55:27.098Z,2.97
2022-11-04T22:57:53.570Z,3.00
2022-11-04T23:00:21.558Z,2.90
2022-11-04T23:02:48.162Z,3.20
2022-11-04T23:05:14.797Z,3.07
2022-11-04T23:07:41.282Z,2.73
2022-11-04T23:10:08.412Z,2.87
2022-11-04T23:12:34.889Z,3.30
2022-11-04T23:15:01.392Z,3.10
2022-11-04T23:17:29.230Z,3.00
2022-11-04T23:19:55.750Z,3.07
2022-11-04T23:22:22.196Z,2.93
2022-11-04T23:24:48.682Z,2.70
2022-11-04T23:27:15.212Z,2.60
2022-11-04T23:29:41.671Z,2.50
2022-11-04T23:32:08.166Z,3.43
2022-11-04T23:34:35.998Z,2.83
2022-11-04T23:37:02.637Z,2.60
2022-11-04T23:39:29.181Z,2.80
2022-11-04T23:41:55.697Z,3.10
2022-11-04T23:44:22.402Z,2.60
2022-11-04T23:46:48.930Z,3.50
2022-11-04T23:49:15.582Z,2.50
2022-11-04T23:51:43.708Z,2.50
2022-11-04T23:54:10.220Z,2.60
2022-11-04T23:56:36.768Z,2.80
2022-11-04T23:59:03.336Z,2.30
